Tusket, Canada
Current Conditions -  °F | °C
As of 5:39 AM on Thursday 27 Nov 2014 (Local Time) from CYQI Reporting Station
Drizzle Drizzle  
Wind Chill: 34°   Ceiling: 200
Heat Index: 41°   Visibility: 0.75mi
Dew Point: 41°   Wind: 13mph
Humidity: 100%   Direction: 90°E
Pressure: 29.31"   Gusts: NA
Location:  43.86°N, 65.98°W
Report Text: CYQI 270939Z 09011KT 3/4SM -DZ BR VV002 05/05 A2931 RMK FG8 PRESFR SLP925
Loading
Personal Weather Stations






























Interactive Weather Map New forecast layout! Learn more

10-Day Weather Forecast

Advertisements
Track Severe Weather on mobile